sensor_id;sensor_type;location;lat;lon;timestamp;temperature;humidity
26621;DHT22;14253;44.840;10.444;2023-02-01T00:00:20;1.60;99.90
26621;DHT22;14253;44.840;10.444;2023-02-01T00:02:46;1.50;99.90
26621;DHT22;14253;44.840;10.444;2023-02-01T00:05:13;1.40;99.90
26621;DHT22;14253;44.840;10.444;2023-02-01T00:07:39;1.20;99.90
26621;DHT22;14253;44.840;10.444;2023-02-01T00:10:06;1.20;99.90
26621;DHT22;14253;44.840;10.444;2023-02-01T00:12:33;1.20;99.90
26621;DHT22;14253;44.840;10.444;2023-02-01T00:14:59;1.20;99.90
26621;DHT22;14253;44.840;10.444;2023-02-01T00:17:25;1.20;99.90
26621;DHT22;14253;44.840;10.444;2023-02-01T00:19:51;1.20;99.90
26621;DHT22;14253;44.840;10.444;2023-02-01T00:22:17;1.20;99.90
26621;DHT22;14253;44.840;10.444;2023-02-01T00:24:43;1.10;99.90
26621;DHT22;14253;44.840;10.444;2023-02-01T00:27:09;1.10;99.90
26621;DHT22;14253;44.840;10.444;2023-02-01T00:29:35;1.20;99.90
26621;DHT22;14253;44.840;10.444;2023-02-01T00:32:01;1.20;99.90
26621;DHT22;14253;44.840;10.444;2023-02-01T00:34:27;1.30;99.90
26621;DHT22;14253;44.840;10.444;2023-02-01T00:36:53;1.30;99.90
26621;DHT22;14253;44.840;10.444;2023-02-01T00:39:19;1.30;99.90
26621;DHT22;14253;44.840;10.444;2023-02-01T00:41:45;1.30;99.90
26621;DHT22;14253;44.840;10.444;2023-02-01T00:44:11;1.30;99.90
26621;DHT22;14253;44.840;10.444;2023-02-01T00:46:37;1.30;99.90
26621;DHT22;14253;44.840;10.444;2023-02-01T00:49:03;1.30;99.90
26621;DHT22;14253;44.840;10.444;2023-02-01T00:51:29;1.30;99.90
26621;DHT22;14253;44.840;10.444;2023-02-01T00:53:56;1.20;99.90
26621;DHT22;14253;44.840;10.444;2023-02-01T00:56:22;1.20;99.90
26621;DHT22;14253;44.840;10.444;2023-02-01T00:58:48;1.20;99.90
26621;DHT22;14253;44.840;10.444;2023-02-01T01:01:23;1.10;99.90
26621;DHT22;14253;44.840;10.444;2023-02-01T01:03:52;1.20;99.90
26621;DHT22;14253;44.840;10.444;2023-02-01T01:06:22;1.10;99.90
26621;DHT22;14253;44.840;10.444;2023-02-01T01:08:49;1.10;99.90
26621;DHT22;14253;44.840;10.444;2023-02-01T01:11:18;1.00;99.90
26621;DHT22;14253;44.840;10.444;2023-02-01T01:13:47;1.00;99.90
26621;DHT22;14253;44.840;10.444;2023-02-01T01:16:14;0.90;99.90
26621;DHT22;14253;44.840;10.444;2023-02-01T01:18:40;0.90;99.90
26621;DHT22;14253;44.840;10.444;2023-02-01T01:21:08;0.90;99.90
26621;DHT22;14253;44.840;10.444;2023-02-01T01:23:35;0.90;99.90
26621;DHT22;14253;44.840;10.444;2023-02-01T01:26:09;0.90;99.90
26621;DHT22;14253;44.840;10.444;2023-02-01T01:28:35;0.90;99.90
26621;DHT22;14253;44.840;10.444;2023-02-01T01:31:02;0.90;99.90
26621;DHT22;14253;44.840;10.444;2023-02-01T01:33:28;1.00;99.90
26621;DHT22;14253;44.840;10.444;2023-02-01T01:35:54;1.00;99.90
26621;DHT22;14253;44.840;10.444;2023-02-01T01:38:20;1.00;99.90
26621;DHT22;14253;44.840;10.444;2023-02-01T01:40:47;1.00;99.90
26621;DHT22;14253;44.840;10.444;2023-02-01T01:43:18;1.00;99.90
26621;DHT22;14253;44.840;10.444;2023-02-01T01:45:46;0.90;99.90
26621;DHT22;14253;44.840;10.444;2023-02-01T01:48:28;0.80;99.90
26621;DHT22;14253;44.840;10.444;2023-02-01T01:51:00;0.80;99.90
26621;DHT22;14253;44.840;10.444;2023-02-01T01:53:31;0.70;99.90
26621;DHT22;14253;44.840;10.444;2023-02-01T01:55:59;0.60;99.90
26621;DHT22;14253;44.840;10.444;2023-02-01T01:58:28;0.50;99.90
26621;DHT22;14253;44.840;10.444;2023-02-01T02:00:55;0.40;99.90
26621;DHT22;14253;44.840;10.444;2023-02-01T02:03:30;0.40;99.90
26621;DHT22;14253;44.840;10.444;2023-02-01T02:06:01;0.40;99.90
26621;DHT22;14253;44.840;10.444;2023-02-01T02:08:28;0.40;99.90
26621;DHT22;14253;44.840;10.444;2023-02-01T02:10:54;0.30;99.90
26621;DHT22;14253;44.840;10.444;2023-02-01T02:13:36;0.30;99.90
26621;DHT22;14253;44.840;10.444;2023-02-01T02:24:38;0.40;99.90
26621;DHT22;14253;44.840;10.444;2023-02-01T02:38:34;0.30;99.90
26621;DHT22;14253;44.840;10.444;2023-02-01T02:41:27;0.30;99.90
26621;DHT22;14253;44.840;10.444;2023-02-01T02:44:21;0.20;99.90
26621;DHT22;14253;44.840;10.444;2023-02-01T02:47:21;0.20;99.90
26621;DHT22;14253;44.840;10.444;2023-02-01T02:50:18;0.30;99.90
26621;DHT22;14253;44.840;10.444;2023-02-01T02:53:15;0.30;99.90
26621;DHT22;14253;44.840;10.444;2023-02-01T02:56:03;0.30;99.90
26621;DHT22;14253;44.840;10.444;2023-02-01T02:58:50;0.30;99.90
26621;DHT22;14253;44.840;10.444;2023-02-01T03:01:37;0.30;99.90
26621;DHT22;14253;44.840;10.444;2023-02-01T03:04:23;0.30;99.90
26621;DHT22;14253;44.840;10.444;2023-02-01T03:06:52;0.30;99.90
26621;DHT22;14253;44.840;10.444;2023-02-01T03:09:39;0.30;99.90
26621;DHT22;14253;44.840;10.444;2023-02-01T03:12:09;0.30;99.90
26621;DHT22;14253;44.840;10.444;2023-02-01T03:15:03;0.20;99.90
26621;DHT22;14253;44.840;10.444;2023-02-01T03:17:35;0.10;99.90
26621;DHT22;14253;44.840;10.444;2023-02-01T03:20:06;0.00;99.90
26621;DHT22;14253;44.840;10.444;2023-02-01T03:22:33;-0.10;99.90
26621;DHT22;14253;44.840;10.444;2023-02-01T03:25:09;-0.10;99.90
26621;DHT22;14253;44.840;10.444;2023-02-01T03:27:52;0.00;99.90
26621;DHT22;14253;44.840;10.444;2023-02-01T03:30:33;-0.10;99.90
26621;DHT22;14253;44.840;10.444;2023-02-01T03:33:04;-0.10;99.90
26621;DHT22;14253;44.840;10.444;2023-02-01T03:35:40;0.00;99.90
26621;DHT22;14253;44.840;10.444;2023-02-01T03:47:08;0.20;99.90
26621;DHT22;14253;44.840;10.444;2023-02-01T03:49:43;0.20;99.90
26621;DHT22;14253;44.840;10.444;2023-02-01T03:52:17;0.20;99.90
26621;DHT22;14253;44.840;10.444;2023-02-01T03:54:45;0.10;99.90
26621;DHT22;14253;44.840;10.444;2023-02-01T03:57:14;0.10;99.90
26621;DHT22;14253;44.840;10.444;2023-02-01T03:59:44;0.10;99.90
26621;DHT22;14253;44.840;10.444;2023-02-01T04:02:11;0.10;99.90
26621;DHT22;14253;44.840;10.444;2023-02-01T04:04:37;0.10;99.90
26621;DHT22;14253;44.840;10.444;2023-02-01T04:07:03;0.20;99.90
26621;DHT22;14253;44.840;10.444;2023-02-01T04:09:29;0.20;99.90
26621;DHT22;14253;44.840;10.444;2023-02-01T04:11:56;0.10;99.90
26621;DHT22;14253;44.840;10.444;2023-02-01T04:14:22;0.10;99.90
26621;DHT22;14253;44.840;10.444;2023-02-01T04:16:48;0.00;99.90
26621;DHT22;14253;44.840;10.444;2023-02-01T04:19:13;0.00;99.90
26621;DHT22;14253;44.840;10.444;2023-02-01T04:21:39;0.00;99.90
26621;DHT22;14253;44.840;10.444;2023-02-01T04:24:06;0.00;99.90
26621;DHT22;14253;44.840;10.444;2023-02-01T04:26:32;0.00;99.90
26621;DHT22;14253;44.840;10.444;2023-02-01T04:28:58;-0.10;99.90
26621;DHT22;14253;44.840;10.444;2023-02-01T04:31:24;0.00;99.90
26621;DHT22;14253;44.840;10.444;2023-02-01T04:33:54;-0.10;99.90
26621;DHT22;14253;44.840;10.444;2023-02-01T04:36:21;-0.10;99.90
26621;DHT22;14253;44.840;10.444;2023-02-01T04:38:51;-0.10;99.90
26621;DHT22;14253;44.840;10.444;2023-02-01T04:41:18;0.00;99.90
26621;DHT22;14253;44.840;10.444;2023-02-01T04:43:46;-0.10;99.90
26621;DHT22;14253;44.840;10.444;2023-02-01T04:46:12;-0.10;99.90
26621;DHT22;14253;44.840;10.444;2023-02-01T04:48:38;-0.20;99.90
26621;DHT22;14253;44.840;10.444;2023-02-01T04:51:04;-0.10;99.90
26621;DHT22;14253;44.840;10.444;2023-02-01T04:53:30;-0.10;99.90
26621;DHT22;14253;44.840;10.444;2023-02-01T04:55:56;-0.10;99.90
26621;DHT22;14253;44.840;10.444;2023-02-01T04:58:22;-0.20;99.90
26621;DHT22;14253;44.840;10.444;2023-02-01T05:00:48;-0.20;99.90
26621;DHT22;14253;44.840;10.444;2023-02-01T05:03:15;-0.20;99.90
26621;DHT22;14253;44.840;10.444;2023-02-01T05:05:41;-0.20;99.90
26621;DHT22;14253;44.840;10.444;2023-02-01T05:08:07;-0.30;99.90
26621;DHT22;14253;44.840;10.444;2023-02-01T05:10:33;-0.30;99.90
26621;DHT22;14253;44.840;10.444;2023-02-01T05:12:59;-0.20;99.90
26621;DHT22;14253;44.840;10.444;2023-02-01T05:15:43;-0.30;99.90
26621;DHT22;14253;44.840;10.444;2023-02-01T05:18:09;-0.30;99.90
26621;DHT22;14253;44.840;10.444;2023-02-01T05:20:35;-0.40;99.90
26621;DHT22;14253;44.840;10.444;2023-02-01T05:23:01;-0.40;99.90
26621;DHT22;14253;44.840;10.444;2023-02-01T05:25:27;-0.40;99.90
26621;DHT22;14253;44.840;10.444;2023-02-01T05:27:53;-0.40;99.90
26621;DHT22;14253;44.840;10.444;2023-02-01T05:30:19;-0.50;99.90
26621;DHT22;14253;44.840;10.444;2023-02-01T05:32:45;-0.50;99.90
26621;DHT22;14253;44.840;10.444;2023-02-01T05:35:11;-0.50;99.90
26621;DHT22;14253;44.840;10.444;2023-02-01T05:37:37;-0.50;99.90
26621;DHT22;14253;44.840;10.444;2023-02-01T05:40:03;-0.40;99.90
26621;DHT22;14253;44.840;10.444;2023-02-01T05:42:29;-0.40;99.90
26621;DHT22;14253;44.840;10.444;2023-02-01T05:44:55;-0.30;99.90
26621;DHT22;14253;44.840;10.444;2023-02-01T05:47:21;-0.20;99.90
26621;DHT22;14253;44.840;10.444;2023-02-01T05:49:47;-0.20;99.90
26621;DHT22;14253;44.840;10.444;2023-02-01T05:52:13;-0.10;99.90
26621;DHT22;14253;44.840;10.444;2023-02-01T05:54:39;-0.10;99.90
26621;DHT22;14253;44.840;10.444;2023-02-01T05:57:05;0.00;99.90
26621;DHT22;14253;44.840;10.444;2023-02-01T05:59:31;0.00;99.90
26621;DHT22;14253;44.840;10.444;2023-02-01T06:01:56;0.00;99.90
26621;DHT22;14253;44.840;10.444;2023-02-01T06:04:22;0.00;99.90
26621;DHT22;14253;44.840;10.444;2023-02-01T06:06:48;-0.10;99.90
26621;DHT22;14253;44.840;10.444;2023-02-01T06:09:16;-0.20;99.90
26621;DHT22;14253;44.840;10.444;2023-02-01T06:11:41;-0.10;99.90
26621;DHT22;14253;44.840;10.444;2023-02-01T06:14:08;-0.10;99.90
26621;DHT22;14253;44.840;10.444;2023-02-01T06:16:33;-0.10;99.90
26621;DHT22;14253;44.840;10.444;2023-02-01T06:18:59;-0.20;99.90
26621;DHT22;14253;44.840;10.444;2023-02-01T06:21:25;-0.20;99.90
26621;DHT22;14253;44.840;10.444;2023-02-01T06:23:52;-0.20;99.90
26621;DHT22;14253;44.840;10.444;2023-02-01T06:26:19;-0.20;99.90
26621;DHT22;14253;44.840;10.444;2023-02-01T06:28:45;-0.20;99.90
26621;DHT22;14253;44.840;10.444;2023-02-01T06:31:11;-0.20;99.90
26621;DHT22;14253;44.840;10.444;2023-02-01T06:33:37;-0.30;99.90
26621;DHT22;14253;44.840;10.444;2023-02-01T06:36:06;-0.30;99.90
26621;DHT22;14253;44.840;10.444;2023-02-01T06:38:33;-0.30;99.90
26621;DHT22;14253;44.840;10.444;2023-02-01T06:41:00;-0.30;99.90
26621;DHT22;14253;44.840;10.444;2023-02-01T06:43:27;-0.30;99.90
26621;DHT22;14253;44.840;10.444;2023-02-01T06:45:58;-0.30;99.90
26621;DHT22;14253;44.840;10.444;2023-02-01T06:48:24;-0.30;99.90
26621;DHT22;14253;44.840;10.444;2023-02-01T06:50:50;-0.20;99.90
26621;DHT22;14253;44.840;10.444;2023-02-01T06:53:16;-0.10;99.90
26621;DHT22;14253;44.840;10.444;2023-02-01T06:55:54;-0.10;99.90
26621;DHT22;14253;44.840;10.444;2023-02-01T06:58:21;0.00;99.90
26621;DHT22;14253;44.840;10.444;2023-02-01T07:00:47;0.00;99.90
26621;DHT22;14253;44.840;10.444;2023-02-01T07:03:13;-0.10;99.90
26621;DHT22;14253;44.840;10.444;2023-02-01T07:05:39;-0.10;99.90
26621;DHT22;14253;44.840;10.444;2023-02-01T07:08:05;0.00;99.90
26621;DHT22;14253;44.840;10.444;2023-02-01T07:10:31;0.00;99.90
26621;DHT22;14253;44.840;10.444;2023-02-01T07:12:57;0.10;99.90
26621;DHT22;14253;44.840;10.444;2023-02-01T07:15:23;0.10;99.90
26621;DHT22;14253;44.840;10.444;2023-02-01T07:17:49;0.20;99.90
26621;DHT22;14253;44.840;10.444;2023-02-01T07:20:16;0.20;99.90
26621;DHT22;14253;44.840;10.444;2023-02-01T07:22:42;0.30;99.90
26621;DHT22;14253;44.840;10.444;2023-02-01T07:25:08;0.40;99.90
26621;DHT22;14253;44.840;10.444;2023-02-01T07:27:35;0.50;99.90
26621;DHT22;14253;44.840;10.444;2023-02-01T07:30:01;0.50;99.90
26621;DHT22;14253;44.840;10.444;2023-02-01T07:32:29;0.60;99.90
26621;DHT22;14253;44.840;10.444;2023-02-01T07:34:55;0.70;99.90
26621;DHT22;14253;44.840;10.444;2023-02-01T07:37:21;0.80;99.90
26621;DHT22;14253;44.840;10.444;2023-02-01T07:39:47;0.90;99.90
26621;DHT22;14253;44.840;10.444;2023-02-01T07:42:13;1.00;99.90
26621;DHT22;14253;44.840;10.444;2023-02-01T07:44:39;1.20;99.90
26621;DHT22;14253;44.840;10.444;2023-02-01T07:47:05;1.40;99.90
26621;DHT22;14253;44.840;10.444;2023-02-01T07:49:31;1.50;99.90
26621;DHT22;14253;44.840;10.444;2023-02-01T07:51:56;1.70;99.90
26621;DHT22;14253;44.840;10.444;2023-02-01T07:54:22;1.70;99.90
26621;DHT22;14253;44.840;10.444;2023-02-01T07:56:48;1.90;99.90
26621;DHT22;14253;44.840;10.444;2023-02-01T07:59:14;2.10;99.90
26621;DHT22;14253;44.840;10.444;2023-02-01T08:01:41;2.20;99.90
26621;DHT22;14253;44.840;10.444;2023-02-01T08:04:10;2.10;99.90
26621;DHT22;14253;44.840;10.444;2023-02-01T08:06:37;2.20;99.90
26621;DHT22;14253;44.840;10.444;2023-02-01T08:09:04;2.10;99.90
26621;DHT22;14253;44.840;10.444;2023-02-01T08:11:31;2.20;99.90
26621;DHT22;14253;44.840;10.444;2023-02-01T08:13:58;2.20;99.90
26621;DHT22;14253;44.840;10.444;2023-02-01T08:16:24;2.40;99.90
26621;DHT22;14253;44.840;10.444;2023-02-01T08:18:51;2.50;99.90
26621;DHT22;14253;44.840;10.444;2023-02-01T08:21:22;2.60;99.90
26621;DHT22;14253;44.840;10.444;2023-02-01T08:23:49;2.70;99.90
26621;DHT22;14253;44.840;10.444;2023-02-01T08:26:18;2.70;99.90
26621;DHT22;14253;44.840;10.444;2023-02-01T08:28:48;2.70;99.90
26621;DHT22;14253;44.840;10.444;2023-02-01T08:31:15;2.70;99.90
26621;DHT22;14253;44.840;10.444;2023-02-01T08:33:43;2.70;99.90
26621;DHT22;14253;44.840;10.444;2023-02-01T08:36:10;2.70;99.90
26621;DHT22;14253;44.840;10.444;2023-02-01T08:38:38;2.60;99.90
26621;DHT22;14253;44.840;10.444;2023-02-01T08:41:13;2.50;99.90
26621;DHT22;14253;44.840;10.444;2023-02-01T08:43:40;2.60;99.90
26621;DHT22;14253;44.840;10.444;2023-02-01T08:46:07;2.60;99.90
26621;DHT22;14253;44.840;10.444;2023-02-01T08:48:34;2.50;99.90
26621;DHT22;14253;44.840;10.444;2023-02-01T08:51:08;2.70;99.90
26621;DHT22;14253;44.840;10.444;2023-02-01T08:53:36;2.80;99.90
26621;DHT22;14253;44.840;10.444;2023-02-01T08:56:03;2.90;99.90
26621;DHT22;14253;44.840;10.444;2023-02-01T08:58:29;2.90;99.90
26621;DHT22;14253;44.840;10.444;2023-02-01T09:00:57;3.00;99.90
26621;DHT22;14253;44.840;10.444;2023-02-01T09:03:23;3.10;99.90
26621;DHT22;14253;44.840;10.444;2023-02-01T09:05:49;3.20;99.90
26621;DHT22;14253;44.840;10.444;2023-02-01T09:08:15;3.30;99.90
26621;DHT22;14253;44.840;10.444;2023-02-01T09:10:42;3.30;99.90
26621;DHT22;14253;44.840;10.444;2023-02-01T09:13:08;3.50;99.90
26621;DHT22;14253;44.840;10.444;2023-02-01T09:15:35;3.50;99.90
26621;DHT22;14253;44.840;10.444;2023-02-01T09:18:02;3.60;99.90
26621;DHT22;14253;44.840;10.444;2023-02-01T09:20:28;3.50;99.90
26621;DHT22;14253;44.840;10.444;2023-02-01T09:22:55;3.50;99.90
26621;DHT22;14253;44.840;10.444;2023-02-01T09:25:21;3.60;99.90
26621;DHT22;14253;44.840;10.444;2023-02-01T09:27:47;3.80;99.90
26621;DHT22;14253;44.840;10.444;2023-02-01T09:30:13;3.90;99.90
26621;DHT22;14253;44.840;10.444;2023-02-01T09:32:39;4.00;99.90
26621;DHT22;14253;44.840;10.444;2023-02-01T09:35:05;4.10;99.90
26621;DHT22;14253;44.840;10.444;2023-02-01T09:37:31;4.20;99.90
26621;DHT22;14253;44.840;10.444;2023-02-01T09:39:58;4.20;99.90
26621;DHT22;14253;44.840;10.444;2023-02-01T09:42:48;4.30;99.90
26621;DHT22;14253;44.840;10.444;2023-02-01T09:45:20;4.30;99.90
26621;DHT22;14253;44.840;10.444;2023-02-01T09:47:54;4.40;99.90
26621;DHT22;14253;44.840;10.444;2023-02-01T09:50:28;4.50;99.90
26621;DHT22;14253;44.840;10.444;2023-02-01T09:53:02;4.60;99.90
26621;DHT22;14253;44.840;10.444;2023-02-01T09:58:41;4.90;99.90
26621;DHT22;14253;44.840;10.444;2023-02-01T10:01:18;5.00;99.90
26621;DHT22;14253;44.840;10.444;2023-02-01T10:03:45;5.20;99.90
26621;DHT22;14253;44.840;10.444;2023-02-01T10:18:28;5.70;99.90
26621;DHT22;14253;44.840;10.444;2023-02-01T10:26:44;6.10;99.90
26621;DHT22;14253;44.840;10.444;2023-02-01T10:29:19;6.20;99.90
26621;DHT22;14253;44.840;10.444;2023-02-01T10:31:46;6.30;99.90
26621;DHT22;14253;44.840;10.444;2023-02-01T10:34:31;6.40;99.90
26621;DHT22;14253;44.840;10.444;2023-02-01T10:37:23;6.50;99.90
26621;DHT22;14253;44.840;10.444;2023-02-01T10:39:52;6.60;99.90
26621;DHT22;14253;44.840;10.444;2023-02-01T10:42:22;6.70;99.90
26621;DHT22;14253;44.840;10.444;2023-02-01T10:44:49;6.80;99.90
26621;DHT22;14253;44.840;10.444;2023-02-01T10:47:15;6.90;99.90
26621;DHT22;14253;44.840;10.444;2023-02-01T10:50:03;6.90;99.90
26621;DHT22;14253;44.840;10.444;2023-02-01T10:52:52;6.90;99.90
26621;DHT22;14253;44.840;10.444;2023-02-01T10:55:39;7.00;99.90
26621;DHT22;14253;44.840;10.444;2023-02-01T10:58:12;7.10;99.90
26621;DHT22;14253;44.840;10.444;2023-02-01T11:01:37;7.30;99.90
26621;DHT22;14253;44.840;10.444;2023-02-01T11:17:15;7.50;99.90
26621;DHT22;14253;44.840;10.444;2023-02-01T11:19:45;7.70;99.90
26621;DHT22;14253;44.840;10.444;2023-02-01T11:22:12;7.90;99.90
26621;DHT22;14253;44.840;10.444;2023-02-01T11:24:40;7.90;99.90
26621;DHT22;14253;44.840;10.444;2023-02-01T11:27:17;8.10;99.90
26621;DHT22;14253;44.840;10.444;2023-02-01T11:29:47;8.20;99.90
26621;DHT22;14253;44.840;10.444;2023-02-01T11:32:16;8.40;99.90
26621;DHT22;14253;44.840;10.444;2023-02-01T11:34:55;8.60;99.90
26621;DHT22;14253;44.840;10.444;2023-02-01T11:37:40;8.80;99.90
26621;DHT22;14253;44.840;10.444;2023-02-01T11:42:54;9.10;99.90
26621;DHT22;14253;44.840;10.444;2023-02-01T11:45:28;9.10;99.90
26621;DHT22;14253;44.840;10.444;2023-02-01T11:47:57;9.20;99.90
26621;DHT22;14253;44.840;10.444;2023-02-01T11:53:23;9.50;99.90
26621;DHT22;14253;44.840;10.444;2023-02-01T12:07:13;10.00;99.90
26621;DHT22;14253;44.840;10.444;2023-02-01T12:23:07;10.50;99.90
26621;DHT22;14253;44.840;10.444;2023-02-01T12:29:14;10.70;99.90
26621;DHT22;14253;44.840;10.444;2023-02-01T12:34:53;10.80;99.90
26621;DHT22;14253;44.840;10.444;2023-02-01T12:40:20;10.90;99.90
26621;DHT22;14253;44.840;10.444;2023-02-01T12:43:09;11.00;99.90
26621;DHT22;14253;44.840;10.444;2023-02-01T12:45:41;10.90;99.90
26621;DHT22;14253;44.840;10.444;2023-02-01T12:48:29;11.00;99.90
26621;DHT22;14253;44.840;10.444;2023-02-01T12:51:11;11.00;99.90
26621;DHT22;14253;44.840;10.444;2023-02-01T12:53:59;11.00;99.90
26621;DHT22;14253;44.840;10.444;2023-02-01T12:56:34;11.00;99.90
26621;DHT22;14253;44.840;10.444;2023-02-01T12:59:10;11.10;99.90
26621;DHT22;14253;44.840;10.444;2023-02-01T13:05:00;11.60;99.90
26621;DHT22;14253;44.840;10.444;2023-02-01T13:07:42;11.90;99.90
26621;DHT22;14253;44.840;10.444;2023-02-01T13:10:32;12.00;99.90
26621;DHT22;14253;44.840;10.444;2023-02-01T13:16:14;11.90;99.90
26621;DHT22;14253;44.840;10.444;2023-02-01T13:18:43;11.90;99.90
26621;DHT22;14253;44.840;10.444;2023-02-01T13:21:42;11.90;99.90
26621;DHT22;14253;44.840;10.444;2023-02-01T13:25:13;11.90;99.90
26621;DHT22;14253;44.840;10.444;2023-02-01T13:27:21;12.00;99.90
26621;DHT22;14253;44.840;10.444;2023-02-01T13:38:04;12.30;99.90
26621;DHT22;14253;44.840;10.444;2023-02-01T13:43:28;12.30;99.90
26621;DHT22;14253;44.840;10.444;2023-02-01T13:46:02;12.40;99.90
26621;DHT22;14253;44.840;10.444;2023-02-01T13:48:38;12.50;99.90
26621;DHT22;14253;44.840;10.444;2023-02-01T13:51:05;12.60;99.90
26621;DHT22;14253;44.840;10.444;2023-02-01T13:53:34;12.60;99.90
26621;DHT22;14253;44.840;10.444;2023-02-01T13:56:15;12.70;99.90
26621;DHT22;14253;44.840;10.444;2023-02-01T13:58:44;12.70;99.90
26621;DHT22;14253;44.840;10.444;2023-02-01T14:03:56;12.40;99.90
26621;DHT22;14253;44.840;10.444;2023-02-01T14:09:19;12.40;99.90
26621;DHT22;14253;44.840;10.444;2023-02-01T14:11:56;12.40;99.90
26621;DHT22;14253;44.840;10.444;2023-02-01T14:19:23;12.50;99.90
26621;DHT22;14253;44.840;10.444;2023-02-01T14:21:52;12.70;99.90
26621;DHT22;14253;44.840;10.444;2023-02-01T14:24:27;12.90;99.90
26621;DHT22;14253;44.840;10.444;2023-02-01T14:26:56;13.00;99.90
26621;DHT22;14253;44.840;10.444;2023-02-01T14:29:35;13.10;99.90
26621;DHT22;14253;44.840;10.444;2023-02-01T14:58:08;12.60;99.90
26621;DHT22;14253;44.840;10.444;2023-02-01T15:00:54;12.30;99.90
26621;DHT22;14253;44.840;10.444;2023-02-01T15:05:59;12.10;99.90
26621;DHT22;14253;44.840;10.444;2023-02-01T15:08:37;11.90;99.90
26621;DHT22;14253;44.840;10.444;2023-02-01T15:11:08;11.80;99.90
26621;DHT22;14253;44.840;10.444;2023-02-01T15:13:37;11.70;99.90
26621;DHT22;14253;44.840;10.444;2023-02-01T15:16:11;11.60;99.90
26621;DHT22;14253;44.840;10.444;2023-02-01T15:18:39;11.80;99.90
26621;DHT22;14253;44.840;10.444;2023-02-01T15:21:07;12.20;99.90
26621;DHT22;14253;44.840;10.444;2023-02-01T15:23:40;12.30;99.90
26621;DHT22;14253;44.840;10.444;2023-02-01T15:26:06;12.30;99.90
26621;DHT22;14253;44.840;10.444;2023-02-01T15:28:32;12.10;99.90
26621;DHT22;14253;44.840;10.444;2023-02-01T15:31:00;11.90;99.90
26621;DHT22;14253;44.840;10.444;2023-02-01T15:33:28;11.70;99.90
26621;DHT22;14253;44.840;10.444;2023-02-01T15:38:36;11.40;99.90
26621;DHT22;14253;44.840;10.444;2023-02-01T15:41:13;11.40;99.90
26621;DHT22;14253;44.840;10.444;2023-02-01T15:43:49;11.20;99.90
26621;DHT22;14253;44.840;10.444;2023-02-01T15:46:34;11.10;99.90
26621;DHT22;14253;44.840;10.444;2023-02-01T15:49:01;10.90;99.90
26621;DHT22;14253;44.840;10.444;2023-02-01T15:51:30;10.80;99.90
26621;DHT22;14253;44.840;10.444;2023-02-01T15:54:06;10.70;99.90
26621;DHT22;14253;44.840;10.444;2023-02-01T15:56:39;10.60;99.90
26621;DHT22;14253;44.840;10.444;2023-02-01T15:59:13;10.40;99.90
26621;DHT22;14253;44.840;10.444;2023-02-01T16:01:40;10.30;99.90
26621;DHT22;14253;44.840;10.444;2023-02-01T16:04:33;10.20;99.90
26621;DHT22;14253;44.840;10.444;2023-02-01T16:07:26;9.90;99.90
26621;DHT22;14253;44.840;10.444;2023-02-01T16:09:55;9.70;99.90
26621;DHT22;14253;44.840;10.444;2023-02-01T16:12:29;9.60;99.90
26621;DHT22;14253;44.840;10.444;2023-02-01T16:14:56;9.40;99.90
26621;DHT22;14253;44.840;10.444;2023-02-01T16:17:22;9.20;99.90
26621;DHT22;14253;44.840;10.444;2023-02-01T16:19:48;9.10;99.90
26621;DHT22;14253;44.840;10.444;2023-02-01T16:22:14;8.90;99.90
26621;DHT22;14253;44.840;10.444;2023-02-01T16:24:40;8.80;99.90
26621;DHT22;14253;44.840;10.444;2023-02-01T16:27:06;8.70;99.90
26621;DHT22;14253;44.840;10.444;2023-02-01T16:29:33;8.60;99.90
26621;DHT22;14253;44.840;10.444;2023-02-01T16:31:59;8.40;99.90
26621;DHT22;14253;44.840;10.444;2023-02-01T16:34:25;8.30;99.90
26621;DHT22;14253;44.840;10.444;2023-02-01T16:36:51;8.10;99.90
26621;DHT22;14253;44.840;10.444;2023-02-01T16:39:21;8.00;99.90
26621;DHT22;14253;44.840;10.444;2023-02-01T16:41:47;7.90;99.90
26621;DHT22;14253;44.840;10.444;2023-02-01T16:44:13;7.80;99.90
26621;DHT22;14253;44.840;10.444;2023-02-01T16:46:42;7.70;99.90
26621;DHT22;14253;44.840;10.444;2023-02-01T16:49:21;7.60;99.90
26621;DHT22;14253;44.840;10.444;2023-02-01T16:51:50;7.40;99.90
26621;DHT22;14253;44.840;10.444;2023-02-01T16:54:19;7.30;99.90
26621;DHT22;14253;44.840;10.444;2023-02-01T16:56:46;7.30;99.90
26621;DHT22;14253;44.840;10.444;2023-02-01T16:59:13;7.30;99.90
26621;DHT22;14253;44.840;10.444;2023-02-01T17:01:40;7.20;99.90
26621;DHT22;14253;44.840;10.444;2023-02-01T17:04:09;7.00;99.90
26621;DHT22;14253;44.840;10.444;2023-02-01T17:06:36;6.90;99.90
26621;DHT22;14253;44.840;10.444;2023-02-01T17:09:03;6.80;99.90
26621;DHT22;14253;44.840;10.444;2023-02-01T17:11:30;6.80;99.90
26621;DHT22;14253;44.840;10.444;2023-02-01T17:14:16;6.70;99.90
26621;DHT22;14253;44.840;10.444;2023-02-01T17:16:42;6.60;99.90
26621;DHT22;14253;44.840;10.444;2023-02-01T17:19:13;6.50;99.90
26621;DHT22;14253;44.840;10.444;2023-02-01T17:21:46;6.40;99.90
26621;DHT22;14253;44.840;10.444;2023-02-01T17:24:15;6.40;99.90
26621;DHT22;14253;44.840;10.444;2023-02-01T17:26:42;6.30;99.90
26621;DHT22;14253;44.840;10.444;2023-02-01T17:29:09;6.20;99.90
26621;DHT22;14253;44.840;10.444;2023-02-01T17:31:49;6.20;99.90
26621;DHT22;14253;44.840;10.444;2023-02-01T17:34:16;6.10;99.90
26621;DHT22;14253;44.840;10.444;2023-02-01T17:36:44;6.00;99.90
26621;DHT22;14253;44.840;10.444;2023-02-01T17:39:12;6.00;99.90
26621;DHT22;14253;44.840;10.444;2023-02-01T17:41:58;6.00;99.90
26621;DHT22;14253;44.840;10.444;2023-02-01T17:44:25;5.90;99.90
26621;DHT22;14253;44.840;10.444;2023-02-01T17:46:51;5.90;99.90
26621;DHT22;14253;44.840;10.444;2023-02-01T17:49:17;5.80;99.90
26621;DHT22;14253;44.840;10.444;2023-02-01T17:51:43;5.80;99.90
26621;DHT22;14253;44.840;10.444;2023-02-01T17:54:16;5.70;99.90
26621;DHT22;14253;44.840;10.444;2023-02-01T17:56:45;5.70;99.90
26621;DHT22;14253;44.840;10.444;2023-02-01T17:59:15;5.60;99.90
26621;DHT22;14253;44.840;10.444;2023-02-01T18:01:42;5.50;99.90
26621;DHT22;14253;44.840;10.444;2023-02-01T18:04:17;5.40;99.90
26621;DHT22;14253;44.840;10.444;2023-02-01T18:06:43;5.40;99.90
26621;DHT22;14253;44.840;10.444;2023-02-01T18:09:09;5.30;99.90
26621;DHT22;14253;44.840;10.444;2023-02-01T18:11:35;5.30;99.90
26621;DHT22;14253;44.840;10.444;2023-02-01T18:14:01;5.30;99.90
26621;DHT22;14253;44.840;10.444;2023-02-01T18:16:32;5.20;99.90
26621;DHT22;14253;44.840;10.444;2023-02-01T18:18:59;5.20;99.90
26621;DHT22;14253;44.840;10.444;2023-02-01T18:21:43;5.20;99.90
26621;DHT22;14253;44.840;10.444;2023-02-01T18:24:13;5.10;99.90
26621;DHT22;14253;44.840;10.444;2023-02-01T18:26:40;5.00;99.90